Terminal Aerodrome Forecast
Issued by NWS

Home | Current Version | Previous Version | Text Only | Print | Product List | Glossary On
Versions: 1 2 3 4 5 6 7 8 9 10 11 12
048
FTPA31 PHFO 051732
TAFHOG
TAF
PHOG 051732Z 0518/0618 16005KT P6SM FEW030 SCT050
     FM052000 06012KT P6SM FEW030 SCT050
     FM060000 10010KT P6SM FEW030 SCT050
     FM061200 15005KT P6SM FEW030 SCT050=

USA.gov is the U.S. government's official web portal to all federal, state and local government web resources and services.